Aurora, Illinois
Current Conditions -  °F | °C
As of 7:52 PM on Wednesday 22 Oct 2014 (Local Time) from KARR Reporting Station
Clear Clear  
Wind Chill:   Ceiling: Unl
Heat Index:   Visibility: 9mi
Dew Point:   Wind: 8mph
Humidity: 68%   Direction: 90°E
Pressure: 30.26"   Gusts: NA
Location:  41.76°N, 88.31°W
Report Text: KARR 230052Z 09007KT 9SM CLR 07/02 A3026 RMK AO2 SLP254 T00720017
Loading
Personal Weather Stations






























Interactive Weather Map
Tropical Storm Tracking
New forecast layout! Learn more

10-Day Weather Forecast

Advertisements
Track Severe Weather on mobile